createdAt,value
2018-09-16T00:02:17.507Z,100989.56
2018-09-16T00:05:20.358Z,100991.03
2018-09-16T00:08:23.288Z,100990.08
2018-09-16T00:11:26.233Z,100987.30
2018-09-16T00:14:29.208Z,100985.17
2018-09-16T00:17:32.109Z,100976.34
2018-09-16T00:20:35.016Z,100980.20
2018-09-16T00:23:37.911Z,100977.46
2018-09-16T00:26:40.828Z,100978.25
2018-09-16T00:29:43.713Z,100976.86
2018-09-16T00:32:46.620Z,100967.53
2018-09-16T00:35:49.506Z,100964.07
2018-09-16T00:38:52.459Z,100947.03
2018-09-16T00:41:55.420Z,100952.41
2018-09-16T00:44:58.315Z,100955.04
2018-09-16T00:48:01.285Z,100949.29
2018-09-16T00:51:04.201Z,100949.52
2018-09-16T00:54:07.058Z,100942.37
2018-09-16T00:57:09.933Z,100935.02
2018-09-16T01:00:12.849Z,100934.94
2018-09-16T01:03:15.813Z,100932.52
2018-09-16T01:06:36.552Z,100936.09
2018-09-16T01:09:39.472Z,100925.10
2018-09-16T01:12:42.465Z,100927.97
2018-09-16T01:15:45.800Z,100919.98
2018-09-16T01:18:48.755Z,100911.84
2018-09-16T01:21:51.679Z,100908.91
2018-09-16T01:24:54.623Z,100903.94
2018-09-16T01:27:57.473Z,100902.59
2018-09-16T01:31:00.537Z,100900.97
2018-09-16T01:34:03.521Z,100909.90
2018-09-16T01:37:12.311Z,100904.09
2018-09-16T01:40:15.196Z,100898.52
2018-09-16T01:43:18.259Z,100903.55
2018-09-16T01:46:21.209Z,100900.49
2018-09-16T01:49:24.081Z,100898.36
2018-09-16T01:52:27.043Z,100895.66
2018-09-16T01:55:29.965Z,100889.58
2018-09-16T01:58:32.871Z,100890.38
2018-09-16T02:01:35.816Z,100883.95
2018-09-16T02:04:40.669Z,100885.94
2018-09-16T02:07:43.577Z,100884.49
2018-09-16T02:10:46.517Z,100877.27
2018-09-16T02:13:49.451Z,100878.48
2018-09-16T02:16:52.385Z,100884.94
2018-09-16T02:19:55.336Z,100882.48
2018-09-16T02:22:58.276Z,100874.86
2018-09-16T02:26:01.190Z,100874.04
2018-09-16T02:29:04.193Z,100867.48
2018-09-16T02:32:07.165Z,100867.24
2018-09-16T02:35:10.101Z,100867.17
2018-09-16T02:38:13.079Z,100868.02
2018-09-16T02:41:16.055Z,100863.66
2018-09-16T02:44:18.975Z,100860.87
2018-09-16T02:47:21.843Z,100856.58
2018-09-16T02:50:24.755Z,100848.27
2018-09-16T02:53:27.649Z,100844.60
2018-09-16T02:56:30.536Z,100849.22
2018-09-16T02:59:33.527Z,100845.09
2018-09-16T03:02:36.461Z,100828.72
2018-09-16T03:05:49.072Z,100829.63
2018-09-16T03:08:52.128Z,100819.09
2018-09-16T03:11:55.005Z,100823.48
2018-09-16T03:14:57.953Z,100830.22
2018-09-16T03:18:00.897Z,100825.16
2018-09-16T03:21:03.815Z,100827.05
2018-09-16T03:24:06.718Z,100815.36
2018-09-16T03:27:09.633Z,100812.53
2018-09-16T03:30:12.528Z,100814.23
2018-09-16T03:33:15.421Z,100815.50
2018-09-16T03:36:18.508Z,100816.61
2018-09-16T03:39:21.421Z,100814.31
2018-09-16T03:42:24.353Z,100813.04
2018-09-16T03:45:27.256Z,100810.21
2018-09-16T03:48:30.236Z,100815.22
2018-09-16T03:51:33.174Z,100809.42
2018-09-16T03:54:36.114Z,100804.63
2018-09-16T03:57:39.017Z,100803.11
2018-09-16T04:00:41.931Z,100808.62
2018-09-16T04:03:44.861Z,100812.11
2018-09-16T04:06:47.730Z,100805.22
2018-09-16T04:09:50.735Z,100805.00
2018-09-16T04:12:53.597Z,100803.80
2018-09-16T04:15:56.516Z,100806.10
2018-09-16T04:18:59.415Z,100798.95
2018-09-16T04:22:02.336Z,100804.58
2018-09-16T04:25:05.206Z,100799.56
2018-09-16T04:28:08.287Z,100806.02
2018-09-16T04:31:11.698Z,100808.59
2018-09-16T04:34:14.580Z,100812.67
2018-09-16T04:37:17.504Z,100804.34
2018-09-16T04:40:20.495Z,100819.06
2018-09-16T04:43:23.400Z,100818.62
2018-09-16T04:46:26.324Z,100814.89
2018-09-16T04:49:29.209Z,100812.25
2018-09-16T04:52:32.619Z,100818.93
2018-09-16T04:55:35.585Z,100820.59
2018-09-16T04:58:38.532Z,100818.25
2018-09-16T05:01:41.500Z,100823.23
2018-09-16T05:04:44.398Z,100831.66
2018-09-16T05:07:47.416Z,100831.44
2018-09-16T05:10:50.289Z,100827.79
2018-09-16T05:13:53.256Z,100824.77
2018-09-16T05:16:56.314Z,100828.15
2018-09-16T05:19:59.272Z,100824.16
2018-09-16T05:23:02.187Z,100830.11
2018-09-16T05:26:05.180Z,100827.11
2018-09-16T05:29:08.068Z,100829.23
2018-09-16T05:32:11.048Z,100823.77
2018-09-16T05:35:14.015Z,100835.91
2018-09-16T05:38:16.886Z,100828.75
2018-09-16T05:41:19.769Z,100830.90
2018-09-16T05:44:22.657Z,100833.51
2018-09-16T05:47:25.531Z,100832.20
2018-09-16T05:50:28.434Z,100830.20
2018-09-16T05:53:31.431Z,100829.59
2018-09-16T05:56:34.290Z,100835.15
2018-09-16T05:59:37.200Z,100835.03
2018-09-16T06:02:40.177Z,100835.97
2018-09-16T06:05:43.413Z,100827.56
2018-09-16T06:08:46.324Z,100834.05
2018-09-16T06:11:49.299Z,100835.83
2018-09-16T06:14:52.224Z,100836.34
2018-09-16T06:17:55.129Z,100832.58
2018-09-16T06:20:58.042Z,100831.00
2018-09-16T06:24:00.981Z,100835.81
2018-09-16T06:27:03.850Z,100839.36
2018-09-16T06:30:06.874Z,100836.78
2018-09-16T06:33:09.820Z,100840.69
2018-09-16T06:36:12.728Z,100840.14
2018-09-16T06:39:15.657Z,100843.98
2018-09-16T06:42:18.567Z,100837.78
2018-09-16T06:45:21.462Z,100842.47
2018-09-16T06:48:24.394Z,100832.91
2018-09-16T06:51:27.317Z,100837.51
2018-09-16T06:54:30.331Z,100833.00
2018-09-16T06:57:33.201Z,100835.45
2018-09-16T07:00:36.135Z,100829.76
2018-09-16T07:03:38.975Z,100828.21
2018-09-16T07:06:41.953Z,100827.75
2018-09-16T07:09:44.913Z,100820.55
2018-09-16T07:12:47.843Z,100822.36
2018-09-16T07:15:50.756Z,100820.73
2018-09-16T07:18:53.651Z,100817.53
2018-09-16T07:21:56.553Z,100823.92
2018-09-16T07:24:59.434Z,100825.52
2018-09-16T07:28:02.445Z,100823.59
2018-09-16T07:31:05.406Z,100814.30
2018-09-16T07:34:08.414Z,100806.98
2018-09-16T07:37:11.305Z,100803.25
2018-09-16T07:40:14.260Z,100806.34
2018-09-16T07:43:17.218Z,100808.27
2018-09-16T07:46:20.179Z,100812.82
2018-09-16T07:49:23.034Z,100808.07
2018-09-16T07:52:25.946Z,100810.44
2018-09-16T07:55:28.829Z,100805.80
2018-09-16T07:58:31.717Z,100801.91
2018-09-16T08:01:34.756Z,100801.56
2018-09-16T08:04:37.636Z,100803.95
2018-09-16T08:07:40.560Z,100804.33
2018-09-16T08:10:43.455Z,100808.10
2018-09-16T08:13:46.449Z,100812.68
2018-09-16T08:16:49.324Z,100820.95
2018-09-16T08:19:52.336Z,100819.59
2018-09-16T08:22:55.349Z,100821.77
2018-09-16T08:25:58.315Z,100816.89
2018-09-16T08:29:01.242Z,100826.81
2018-09-16T08:32:04.152Z,100821.13
2018-09-16T08:35:07.135Z,100822.67
2018-09-16T08:38:10.273Z,100820.11
2018-09-16T08:41:13.200Z,100821.29
2018-09-16T08:44:16.082Z,100818.45
2018-09-16T08:47:19.104Z,100813.77
2018-09-16T08:50:22.070Z,100813.94
2018-09-16T08:53:25.020Z,100809.91
2018-09-16T08:56:28.155Z,100807.30
2018-09-16T08:59:31.061Z,100803.67
2018-09-16T09:02:35.226Z,100808.77
2018-09-16T09:05:39.505Z,100804.13
2018-09-16T09:08:42.425Z,100797.43
2018-09-16T09:11:46.624Z,100795.39
2018-09-16T09:14:50.971Z,100800.52
2018-09-16T09:17:55.212Z,100793.02
2018-09-16T09:20:59.908Z,100799.76
2018-09-16T09:24:04.387Z,100800.05
2018-09-16T09:27:07.484Z,100801.49
2018-09-16T09:30:10.405Z,100807.91
2018-09-16T09:33:13.311Z,100794.68
2018-09-16T09:36:16.178Z,100797.19
2018-09-16T09:39:19.204Z,100787.10
2018-09-16T09:42:23.110Z,100787.17
2018-09-16T09:45:26.698Z,100790.06
2018-09-16T09:48:29.633Z,100783.51
2018-09-16T09:51:32.769Z,100783.67
2018-09-16T09:54:35.681Z,100775.93
2018-09-16T09:57:38.648Z,100781.72
2018-09-16T10:00:47.344Z,100777.94
2018-09-16T10:03:50.340Z,100774.23
2018-09-16T10:06:53.253Z,100777.14
2018-09-16T10:09:56.205Z,100768.87
2018-09-16T10:12:59.241Z,100761.69
2018-09-16T10:16:02.241Z,100757.50
2018-09-16T10:19:05.187Z,100766.54
2018-09-16T10:22:08.115Z,100764.16
2018-09-16T10:25:10.994Z,100760.89
2018-09-16T10:28:13.888Z,100765.84
2018-09-16T10:31:16.808Z,100770.27
2018-09-16T10:34:19.749Z,100763.69
2018-09-16T10:37:22.711Z,100755.52
2018-09-16T10:40:25.635Z,100753.30
2018-09-16T10:43:28.580Z,100743.75
2018-09-16T10:46:31.494Z,100744.44
2018-09-16T10:49:34.425Z,100730.70
2018-09-16T10:52:37.360Z,100737.22
2018-09-16T10:55:40.269Z,100736.88
2018-09-16T10:58:43.161Z,100729.22
2018-09-16T11:01:46.109Z,100734.86
2018-09-16T11:04:48.998Z,100724.34
2018-09-16T11:07:51.999Z,100726.05
2018-09-16T11:10:54.830Z,100728.19
2018-09-16T11:13:57.774Z,100723.84
2018-09-16T11:17:00.748Z,100723.91
2018-09-16T11:20:03.750Z,100717.06
2018-09-16T11:23:06.719Z,100718.12
2018-09-16T11:26:09.657Z,100716.28
2018-09-16T11:29:12.573Z,100710.78
2018-09-16T11:32:15.434Z,100714.64
2018-09-16T11:35:18.383Z,100708.63
2018-09-16T11:38:21.284Z,100705.73
2018-09-16T11:41:24.133Z,100704.75
2018-09-16T11:44:27.028Z,100698.67
2018-09-16T11:47:29.975Z,100691.67
2018-09-16T11:50:32.846Z,100694.64
2018-09-16T11:53:35.778Z,100694.20
2018-09-16T11:56:38.756Z,100694.35
2018-09-16T11:59:41.680Z,100678.86
2018-09-16T12:02:44.621Z,100683.92
2018-09-16T12:05:47.532Z,100687.48
2018-09-16T12:08:50.423Z,100672.53
2018-09-16T12:11:53.341Z,100669.36
2018-09-16T12:14:56.229Z,100660.63
2018-09-16T12:17:59.180Z,100664.02
2018-09-16T12:21:02.095Z,100654.59
2018-09-16T12:24:05.100Z,100646.93
2018-09-16T12:27:08.052Z,100641.32
2018-09-16T12:30:10.980Z,100646.12
2018-09-16T12:33:13.878Z,100638.06
2018-09-16T12:36:16.812Z,100634.64
2018-09-16T12:39:19.711Z,100629.72
2018-09-16T12:42:22.644Z,100623.97
2018-09-16T12:45:25.549Z,100624.89
2018-09-16T12:48:28.493Z,100626.55
2018-09-16T12:51:31.390Z,100620.41
2018-09-16T12:54:34.325Z,100624.86
2018-09-16T12:57:37.223Z,100614.11
2018-09-16T13:00:40.166Z,100611.11
2018-09-16T13:03:43.065Z,100605.28
2018-09-16T13:06:45.954Z,100605.02
2018-09-16T13:09:48.920Z,100593.31
2018-09-16T13:12:51.789Z,100592.27
2018-09-16T13:15:54.673Z,100584.56
2018-09-16T13:18:57.581Z,100589.39
2018-09-16T13:22:00.475Z,100590.64
2018-09-16T13:25:03.508Z,100590.56
2018-09-16T13:28:06.468Z,100591.30
2018-09-16T13:31:09.416Z,100579.86
2018-09-16T13:34:12.314Z,100571.22
2018-09-16T13:37:15.273Z,100576.37
2018-09-16T13:40:18.207Z,100568.38
2018-09-16T13:43:21.139Z,100563.48
2018-09-16T13:46:24.039Z,100563.84
2018-09-16T13:49:27.008Z,100555.07
2018-09-16T13:52:29.870Z,100554.45
2018-09-16T13:55:33.203Z,100549.67
2018-09-16T13:58:36.149Z,100544.11
2018-09-16T14:01:39.040Z,100540.66
2018-09-16T14:04:41.960Z,100535.28
2018-09-16T14:07:44.850Z,100526.70
2018-09-16T14:10:48.748Z,100515.06
2018-09-16T14:13:51.680Z,100509.59
2018-09-16T14:16:54.631Z,100512.28
2018-09-16T14:19:57.562Z,100506.13
2018-09-16T14:23:00.449Z,100508.94
2018-09-16T14:26:03.428Z,100506.34
2018-09-16T14:29:06.262Z,100503.77
2018-09-16T14:32:09.234Z,100503.38
2018-09-16T14:35:12.188Z,100502.06
2018-09-16T14:38:15.094Z,100499.67
2018-09-16T14:41:18.054Z,100495.93
2018-09-16T14:44:20.982Z,100491.16
2018-09-16T14:47:23.884Z,100493.50
2018-09-16T14:50:26.845Z,100501.78
2018-09-16T14:53:29.756Z,100497.77
2018-09-16T14:56:32.676Z,100488.45
2018-09-16T14:59:35.569Z,100485.28
2018-09-16T15:02:38.433Z,100479.02
2018-09-16T15:05:41.361Z,100482.19
2018-09-16T15:08:44.293Z,100481.02
2018-09-16T15:11:47.624Z,100478.54
2018-09-16T15:14:50.497Z,100479.56
2018-09-16T15:17:53.416Z,100470.56
2018-09-16T15:20:56.361Z,100473.14
2018-09-16T15:23:59.273Z,100465.95
2018-09-16T15:27:02.266Z,100471.16
2018-09-16T15:30:05.504Z,100464.36
2018-09-16T15:33:08.398Z,100474.17
2018-09-16T15:36:11.351Z,100468.38
2018-09-16T15:39:14.256Z,100454.88
2018-09-16T15:42:17.169Z,100449.20
2018-09-16T15:45:20.058Z,100450.28
2018-09-16T15:48:23.005Z,100457.30
2018-09-16T15:51:25.864Z,100456.70
2018-09-16T15:54:28.793Z,100446.77
2018-09-16T15:57:31.724Z,100455.75
2018-09-16T16:00:34.636Z,100440.20
2018-09-16T16:03:37.529Z,100441.23
2018-09-16T16:06:40.484Z,100438.59
2018-09-16T16:09:43.423Z,100444.19
2018-09-16T16:12:46.432Z,100444.78
2018-09-16T16:15:49.345Z,100444.25
2018-09-16T16:18:52.249Z,100443.11
2018-09-16T16:21:55.164Z,100434.95
2018-09-16T16:24:58.056Z,100440.14
2018-09-16T16:28:00.984Z,100444.25
2018-09-16T16:31:03.919Z,100437.33
2018-09-16T16:34:06.897Z,100446.06
2018-09-16T16:37:09.800Z,100444.81
2018-09-16T16:40:12.745Z,100447.12
2018-09-16T16:43:15.645Z,100446.37
2018-09-16T16:46:18.632Z,100446.04
2018-09-16T16:49:21.597Z,100456.25
2018-09-16T16:52:24.544Z,100457.88
2018-09-16T16:55:27.546Z,100461.20
2018-09-16T16:58:30.496Z,100467.58
2018-09-16T17:01:33.407Z,100473.72
2018-09-16T17:04:36.373Z,100471.23
2018-09-16T17:07:39.293Z,100482.78
2018-09-16T17:10:42.175Z,100475.56
2018-09-16T17:13:45.078Z,100475.62
2018-09-16T17:16:48.223Z,100471.75
2018-09-16T17:19:51.100Z,100467.18
2018-09-16T17:22:54.581Z,100471.06
2018-09-16T17:25:57.549Z,100466.85
2018-09-16T17:29:00.503Z,100463.00
2018-09-16T17:32:03.415Z,100469.94
2018-09-16T17:35:06.385Z,100470.91
2018-09-16T17:38:09.337Z,100463.66
2018-09-16T17:41:12.288Z,100457.36
2018-09-16T17:44:15.232Z,100458.38
2018-09-16T17:47:18.120Z,100460.17
2018-09-16T17:50:21.071Z,100456.86
2018-09-16T17:53:24.013Z,100464.14
2018-09-16T17:56:27.043Z,100462.40
2018-09-16T17:59:29.991Z,100456.55
2018-09-16T18:02:32.930Z,100463.75
2018-09-16T18:05:35.794Z,100464.60
2018-09-16T18:08:42.312Z,100459.78
2018-09-16T18:11:45.209Z,100462.62
2018-09-16T18:14:48.164Z,100462.70
2018-09-16T18:17:51.327Z,100466.09
2018-09-16T18:20:55.129Z,100474.61
2018-09-16T18:23:58.502Z,100483.66
2018-09-16T18:27:02.009Z,100485.23
2018-09-16T18:30:05.165Z,100489.27
2018-09-16T18:33:08.149Z,100500.56
2018-09-16T18:36:11.679Z,100497.09
2018-09-16T18:39:15.109Z,100503.77
2018-09-16T18:42:18.265Z,100504.87
2018-09-16T18:45:21.397Z,100505.58
2018-09-16T18:48:24.570Z,100503.28
2018-09-16T18:51:27.809Z,100499.45
2018-09-16T18:54:31.073Z,100497.21
2018-09-16T18:57:34.236Z,100493.22
2018-09-16T19:00:37.180Z,100498.70
2018-09-16T19:03:40.383Z,100496.55
2018-09-16T19:06:43.505Z,100493.44
2018-09-16T19:09:46.513Z,100498.33
2018-09-16T19:12:49.668Z,100495.19
2018-09-16T19:15:53.713Z,100486.96
2018-09-16T19:18:56.943Z,100474.48
2018-09-16T19:22:00.253Z,100477.61
2018-09-16T19:25:03.438Z,100472.44
2018-09-16T19:28:06.468Z,100479.94
2018-09-16T19:31:09.585Z,100477.41
2018-09-16T19:34:12.955Z,100476.94
2018-09-16T19:37:16.338Z,100475.03
2018-09-16T19:40:19.431Z,100472.61
2018-09-16T19:43:22.864Z,100476.84
2018-09-16T19:46:26.128Z,100475.16
2018-09-16T19:49:29.358Z,100477.52
2018-09-16T19:52:32.312Z,100474.23
2018-09-16T19:55:36.052Z,100475.09
2018-09-16T19:58:39.485Z,100473.32
2018-09-16T20:01:43.327Z,100478.14
2018-09-16T20:04:46.551Z,100467.83
2018-09-16T20:07:49.921Z,100480.86
2018-09-16T20:10:53.039Z,100480.39
2018-09-16T20:13:55.961Z,100478.09
2018-09-16T20:16:58.876Z,100484.67
2018-09-16T20:20:01.813Z,100484.28
2018-09-16T20:23:04.789Z,100489.58
2018-09-16T20:26:08.137Z,100492.31
2018-09-16T20:29:11.590Z,100492.23
2018-09-16T20:32:15.794Z,100494.73
2018-09-16T20:35:19.405Z,100490.92
2018-09-16T20:38:22.356Z,100462.60
2018-09-16T20:41:25.503Z,100490.44
2018-09-16T20:44:28.437Z,100495.23
2018-09-16T20:47:31.587Z,100494.45
2018-09-16T20:50:34.536Z,100498.41
2018-09-16T20:53:37.808Z,100496.93
2018-09-16T20:56:41.001Z,100496.52
2018-09-16T20:59:43.969Z,100499.34
2018-09-16T21:02:46.896Z,100492.16
2018-09-16T21:05:49.845Z,100491.58
2018-09-16T21:08:52.752Z,100485.47
2018-09-16T21:11:55.781Z,100493.85
2018-09-16T21:14:58.728Z,100487.69
2018-09-16T21:18:01.728Z,100490.36
2018-09-16T21:21:06.340Z,100487.22
2018-09-16T21:24:09.224Z,100469.22
2018-09-16T21:27:13.222Z,100481.61
2018-09-16T21:30:16.393Z,100482.53
2018-09-16T21:33:19.331Z,100480.42
2018-09-16T21:36:22.311Z,100481.09
2018-09-16T21:39:25.314Z,100482.58
2018-09-16T21:42:28.210Z,100480.42
2018-09-16T21:45:31.110Z,100485.81
2018-09-16T21:48:33.989Z,100486.03
2018-09-16T21:51:36.953Z,100482.36
2018-09-16T21:54:40.005Z,100483.02
2018-09-16T21:57:42.942Z,100476.00
2018-09-16T22:00:51.865Z,100478.66
2018-09-16T22:03:54.799Z,100485.06
2018-09-16T22:06:57.760Z,100479.09
2018-09-16T22:10:00.749Z,100480.02
2018-09-16T22:13:03.654Z,100482.63
2018-09-16T22:16:07.081Z,100481.59
2018-09-16T22:19:09.993Z,100474.16
2018-09-16T22:22:12.945Z,100477.02
2018-09-16T22:25:15.877Z,100472.49
2018-09-16T22:28:18.797Z,100471.48
2018-09-16T22:31:21.710Z,100473.72
2018-09-16T22:34:24.602Z,100472.77
2018-09-16T22:37:27.500Z,100474.97
2018-09-16T22:40:30.429Z,100479.05
2018-09-16T22:43:33.333Z,100484.08
2018-09-16T22:46:36.324Z,100479.84
2018-09-16T22:49:39.261Z,100477.78
2018-09-16T22:52:42.193Z,100483.91
2018-09-16T22:55:45.312Z,100473.83
2018-09-16T22:58:48.269Z,100469.46
2018-09-16T23:01:51.196Z,100463.37
2018-09-16T23:04:54.105Z,100454.16
2018-09-16T23:07:57.000Z,100449.67
2018-09-16T23:10:59.911Z,100450.68
2018-09-16T23:14:02.871Z,100439.28
2018-09-16T23:17:06.075Z,100444.37
2018-09-16T23:20:08.989Z,100442.16
2018-09-16T23:23:11.853Z,100438.25
2018-09-16T23:26:15.131Z,100429.54
2018-09-16T23:29:18.080Z,100425.38
2018-09-16T23:32:21.005Z,100429.27
2018-09-16T23:35:23.921Z,100428.91
2018-09-16T23:38:26.851Z,100429.23
2018-09-16T23:41:29.774Z,100440.97
2018-09-16T23:44:32.717Z,100446.31
2018-09-16T23:47:35.629Z,100449.80
2018-09-16T23:50:38.499Z,100457.45
2018-09-16T23:53:41.465Z,100468.77
2018-09-16T23:56:44.388Z,100465.77
2018-09-16T23:59:47.259Z,100470.28
